sensor_id;sensor_type;location;lat;lon;timestamp;temperature;humidity
40059;SHT31;25763;49.972;8.568;2023-08-31T00:00:29;14.69;86.34
40059;SHT31;25763;49.972;8.568;2023-08-31T00:02:55;14.71;86.29
40059;SHT31;25763;49.972;8.568;2023-08-31T00:05:20;14.69;86.28
40059;SHT31;25763;49.972;8.568;2023-08-31T00:07:46;14.68;86.31
40059;SHT31;25763;49.972;8.568;2023-08-31T00:10:11;14.73;86.32
40059;SHT31;25763;49.972;8.568;2023-08-31T00:12:37;14.72;86.31
40059;SHT31;25763;49.972;8.568;2023-08-31T00:15:03;14.71;86.27
40059;SHT31;25763;49.972;8.568;2023-08-31T00:17:32;14.69;86.27
40059;SHT31;25763;49.972;8.568;2023-08-31T00:19:57;14.64;86.33
40059;SHT31;25763;49.972;8.568;2023-08-31T00:22:23;14.62;86.39
40059;SHT31;25763;49.972;8.568;2023-08-31T00:24:49;14.62;86.40
40059;SHT31;25763;49.972;8.568;2023-08-31T00:27:16;14.58;86.48
40059;SHT31;25763;49.972;8.568;2023-08-31T00:29:42;14.55;86.55
40059;SHT31;25763;49.972;8.568;2023-08-31T00:32:15;14.54;86.62
40059;SHT31;25763;49.972;8.568;2023-08-31T00:34:40;14.51;86.68
40059;SHT31;25763;49.972;8.568;2023-08-31T00:37:05;14.48;86.68
40059;SHT31;25763;49.972;8.568;2023-08-31T00:39:31;14.54;86.69
40059;SHT31;25763;49.972;8.568;2023-08-31T00:41:59;14.47;86.79
40059;SHT31;25763;49.972;8.568;2023-08-31T00:44:24;14.45;86.75
40059;SHT31;25763;49.972;8.568;2023-08-31T00:46:49;14.50;86.77
40059;SHT31;25763;49.972;8.568;2023-08-31T00:49:15;14.50;86.72
40059;SHT31;25763;49.972;8.568;2023-08-31T00:51:41;14.45;86.69
40059;SHT31;25763;49.972;8.568;2023-08-31T00:54:07;14.48;86.69
40059;SHT31;25763;49.972;8.568;2023-08-31T00:56:32;14.45;86.69
40059;SHT31;25763;49.972;8.568;2023-08-31T00:58:58;14.45;86.71
40059;SHT31;25763;49.972;8.568;2023-08-31T01:01:30;14.45;86.63
40059;SHT31;25763;49.972;8.568;2023-08-31T01:04:22;14.41;86.58
40059;SHT31;25763;49.972;8.568;2023-08-31T01:07:39;14.37;86.59
40059;SHT31;25763;49.972;8.568;2023-08-31T01:10:01;14.35;86.59
40059;SHT31;25763;49.972;8.568;2023-08-31T01:15:05;14.26;86.59
40059;SHT31;25763;49.972;8.568;2023-08-31T01:17:38;14.26;86.55
40059;SHT31;25763;49.972;8.568;2023-08-31T01:20:09;14.24;86.63
40059;SHT31;25763;49.972;8.568;2023-08-31T01:22:51;14.21;86.56
40059;SHT31;25763;49.972;8.568;2023-08-31T01:25:20;14.14;86.52
40059;SHT31;25763;49.972;8.568;2023-08-31T01:27:46;14.14;86.39
40059;SHT31;25763;49.972;8.568;2023-08-31T01:30:11;14.09;86.31
40059;SHT31;25763;49.972;8.568;2023-08-31T01:35:59;14.03;86.21
40059;SHT31;25763;49.972;8.568;2023-08-31T01:38:28;14.02;86.23
40059;SHT31;25763;49.972;8.568;2023-08-31T01:41:06;14.00;86.32
40059;SHT31;25763;49.972;8.568;2023-08-31T01:43:32;13.96;86.28
40059;SHT31;25763;49.972;8.568;2023-08-31T01:45:59;13.81;86.39
40059;SHT31;25763;49.972;8.568;2023-08-31T01:48:25;13.77;86.48
40059;SHT31;25763;49.972;8.568;2023-08-31T01:50:50;13.79;86.43
40059;SHT31;25763;49.972;8.568;2023-08-31T01:53:15;13.81;86.44
40059;SHT31;25763;49.972;8.568;2023-08-31T01:55:41;13.81;86.37
40059;SHT31;25763;49.972;8.568;2023-08-31T01:58:06;13.81;86.41
40059;SHT31;25763;49.972;8.568;2023-08-31T02:00:32;13.75;86.47
40059;SHT31;25763;49.972;8.568;2023-08-31T02:03:00;13.75;86.46
40059;SHT31;25763;49.972;8.568;2023-08-31T02:05:26;13.75;86.45
40059;SHT31;25763;49.972;8.568;2023-08-31T02:07:51;13.79;86.43
40059;SHT31;25763;49.972;8.568;2023-08-31T02:10:16;13.82;86.37
40059;SHT31;25763;49.972;8.568;2023-08-31T02:12:42;13.81;86.32
40059;SHT31;25763;49.972;8.568;2023-08-31T02:15:07;13.79;86.26
40059;SHT31;25763;49.972;8.568;2023-08-31T02:17:36;13.74;86.21
40059;SHT31;25763;49.972;8.568;2023-08-31T02:20:02;13.65;86.27
40059;SHT31;25763;49.972;8.568;2023-08-31T02:22:34;13.65;86.24
40059;SHT31;25763;49.972;8.568;2023-08-31T02:25:02;13.67;86.23
40059;SHT31;25763;49.972;8.568;2023-08-31T02:27:28;13.70;86.29
40059;SHT31;25763;49.972;8.568;2023-08-31T02:29:53;13.67;86.32
40059;SHT31;25763;49.972;8.568;2023-08-31T02:32:19;13.61;86.61
40059;SHT31;25763;49.972;8.568;2023-08-31T02:34:45;13.57;86.68
40059;SHT31;25763;49.972;8.568;2023-08-31T02:37:10;13.61;86.68
40059;SHT31;25763;49.972;8.568;2023-08-31T02:39:35;13.64;86.74
40059;SHT31;25763;49.972;8.568;2023-08-31T02:42:01;13.57;86.89
40059;SHT31;25763;49.972;8.568;2023-08-31T02:44:26;13.57;86.99
40059;SHT31;25763;49.972;8.568;2023-08-31T02:46:52;13.59;86.91
40059;SHT31;25763;49.972;8.568;2023-08-31T02:49:17;13.61;86.87
40059;SHT31;25763;49.972;8.568;2023-08-31T02:51:42;13.61;86.88
40059;SHT31;25763;49.972;8.568;2023-08-31T02:54:08;13.58;86.86
40059;SHT31;25763;49.972;8.568;2023-08-31T02:56:33;13.59;86.80
40059;SHT31;25763;49.972;8.568;2023-08-31T02:58:59;13.55;86.80
40059;SHT31;25763;49.972;8.568;2023-08-31T03:01:24;13.58;86.79
40059;SHT31;25763;49.972;8.568;2023-08-31T03:03:50;13.59;86.77
40059;SHT31;25763;49.972;8.568;2023-08-31T03:06:15;13.59;86.80
40059;SHT31;25763;49.972;8.568;2023-08-31T03:08:40;13.61;86.81
40059;SHT31;25763;49.972;8.568;2023-08-31T03:11:06;13.61;86.81
40059;SHT31;25763;49.972;8.568;2023-08-31T03:13:32;13.67;86.73
40059;SHT31;25763;49.972;8.568;2023-08-31T03:15:59;13.68;86.70
40059;SHT31;25763;49.972;8.568;2023-08-31T03:18:24;13.70;86.69
40059;SHT31;25763;49.972;8.568;2023-08-31T03:20:50;13.74;86.67
40059;SHT31;25763;49.972;8.568;2023-08-31T03:23:16;13.77;86.58
40059;SHT31;25763;49.972;8.568;2023-08-31T03:25:41;13.74;86.52
40059;SHT31;25763;49.972;8.568;2023-08-31T03:28:07;13.77;86.53
40059;SHT31;25763;49.972;8.568;2023-08-31T03:30:33;13.74;86.49
40059;SHT31;25763;49.972;8.568;2023-08-31T03:32:58;13.70;86.47
40059;SHT31;25763;49.972;8.568;2023-08-31T03:35:24;13.67;86.53
40059;SHT31;25763;49.972;8.568;2023-08-31T03:37:52;13.65;86.72
40059;SHT31;25763;49.972;8.568;2023-08-31T03:40:17;13.67;86.73
40059;SHT31;25763;49.972;8.568;2023-08-31T03:42:43;13.67;86.74
40059;SHT31;25763;49.972;8.568;2023-08-31T03:45:08;13.67;86.73
40059;SHT31;25763;49.972;8.568;2023-08-31T03:47:34;13.68;86.78
40059;SHT31;25763;49.972;8.568;2023-08-31T03:49:59;13.68;86.82
40059;SHT31;25763;49.972;8.568;2023-08-31T03:52:24;13.68;86.80
40059;SHT31;25763;49.972;8.568;2023-08-31T03:54:51;13.68;86.79
40059;SHT31;25763;49.972;8.568;2023-08-31T03:57:16;13.67;86.77
40059;SHT31;25763;49.972;8.568;2023-08-31T03:59:42;13.67;86.79
40059;SHT31;25763;49.972;8.568;2023-08-31T04:02:07;13.65;86.79
40059;SHT31;25763;49.972;8.568;2023-08-31T04:04:32;13.62;86.84
40059;SHT31;25763;49.972;8.568;2023-08-31T04:06:59;13.59;86.90
40059;SHT31;25763;49.972;8.568;2023-08-31T04:09:25;13.55;86.95
40059;SHT31;25763;49.972;8.568;2023-08-31T04:11:50;13.53;87.00
40059;SHT31;25763;49.972;8.568;2023-08-31T04:14:16;13.53;87.06
40059;SHT31;25763;49.972;8.568;2023-08-31T04:16:43;13.48;87.05
40059;SHT31;25763;49.972;8.568;2023-08-31T04:19:09;13.43;86.99
40059;SHT31;25763;49.972;8.568;2023-08-31T04:21:34;13.40;87.05
40059;SHT31;25763;49.972;8.568;2023-08-31T04:23:59;13.41;87.07
40059;SHT31;25763;49.972;8.568;2023-08-31T04:26:25;13.39;87.05
40059;SHT31;25763;49.972;8.568;2023-08-31T04:28:50;13.36;87.09
40059;SHT31;25763;49.972;8.568;2023-08-31T04:31:16;13.37;87.12
40059;SHT31;25763;49.972;8.568;2023-08-31T04:33:41;13.34;87.04
40059;SHT31;25763;49.972;8.568;2023-08-31T04:36:07;13.32;87.07
40059;SHT31;25763;49.972;8.568;2023-08-31T04:38:34;13.27;87.05
40059;SHT31;25763;49.972;8.568;2023-08-31T04:41:00;13.22;86.99
40059;SHT31;25763;49.972;8.568;2023-08-31T04:43:26;13.19;87.11
40059;SHT31;25763;49.972;8.568;2023-08-31T04:45:52;13.18;87.12
40059;SHT31;25763;49.972;8.568;2023-08-31T04:48:18;13.14;87.19
40059;SHT31;25763;49.972;8.568;2023-08-31T04:50:43;13.06;87.31
40059;SHT31;25763;49.972;8.568;2023-08-31T04:53:08;13.11;87.29
40059;SHT31;25763;49.972;8.568;2023-08-31T04:55:34;13.14;87.35
40059;SHT31;25763;49.972;8.568;2023-08-31T04:57:59;13.05;87.36
40059;SHT31;25763;49.972;8.568;2023-08-31T05:00:25;12.98;87.44
40059;SHT31;25763;49.972;8.568;2023-08-31T05:02:50;13.02;87.57
40059;SHT31;25763;49.972;8.568;2023-08-31T05:05:16;13.04;87.53
40059;SHT31;25763;49.972;8.568;2023-08-31T05:07:43;13.06;87.47
40059;SHT31;25763;49.972;8.568;2023-08-31T05:10:09;12.97;87.49
40059;SHT31;25763;49.972;8.568;2023-08-31T05:12:35;12.94;87.61
40059;SHT31;25763;49.972;8.568;2023-08-31T05:15:00;12.97;87.57
40059;SHT31;25763;49.972;8.568;2023-08-31T05:17:25;13.01;87.49
40059;SHT31;25763;49.972;8.568;2023-08-31T05:19:51;13.06;87.42
40059;SHT31;25763;49.972;8.568;2023-08-31T05:22:16;12.95;87.37
40059;SHT31;25763;49.972;8.568;2023-08-31T05:24:42;12.98;87.51
40059;SHT31;25763;49.972;8.568;2023-08-31T05:27:08;12.99;87.39
40059;SHT31;25763;49.972;8.568;2023-08-31T05:29:33;12.98;87.42
40059;SHT31;25763;49.972;8.568;2023-08-31T05:31:59;12.97;87.48
40059;SHT31;25763;49.972;8.568;2023-08-31T05:34:24;12.99;87.43
40059;SHT31;25763;49.972;8.568;2023-08-31T05:36:50;13.08;87.51
40059;SHT31;25763;49.972;8.568;2023-08-31T05:39:15;13.19;87.32
40059;SHT31;25763;49.972;8.568;2023-08-31T05:41:43;13.24;87.21
40059;SHT31;25763;49.972;8.568;2023-08-31T05:44:09;13.27;87.03
40059;SHT31;25763;49.972;8.568;2023-08-31T05:46:35;13.40;86.99
40059;SHT31;25763;49.972;8.568;2023-08-31T05:49:00;13.44;86.88
40059;SHT31;25763;49.972;8.568;2023-08-31T05:51:26;13.51;86.76
40059;SHT31;25763;49.972;8.568;2023-08-31T05:53:52;13.50;86.56
40059;SHT31;25763;49.972;8.568;2023-08-31T05:56:19;13.59;86.52
40059;SHT31;25763;49.972;8.568;2023-08-31T05:58:44;13.58;86.39
40059;SHT31;25763;49.972;8.568;2023-08-31T06:01:10;13.54;86.37
40059;SHT31;25763;49.972;8.568;2023-08-31T06:03:35;13.53;86.29
40059;SHT31;25763;49.972;8.568;2023-08-31T06:06:02;13.53;86.27
40059;SHT31;25763;49.972;8.568;2023-08-31T06:08:29;13.58;86.32
40059;SHT31;25763;49.972;8.568;2023-08-31T06:10:57;13.65;86.25
40059;SHT31;25763;49.972;8.568;2023-08-31T06:13:23;13.59;86.18
40059;SHT31;25763;49.972;8.568;2023-08-31T06:15:49;13.73;86.05
40059;SHT31;25763;49.972;8.568;2023-08-31T06:18:14;13.85;85.94
40059;SHT31;25763;49.972;8.568;2023-08-31T06:20:40;13.88;85.67
40059;SHT31;25763;49.972;8.568;2023-08-31T06:23:05;13.88;85.51
40059;SHT31;25763;49.972;8.568;2023-08-31T06:25:31;14.09;85.48
40059;SHT31;25763;49.972;8.568;2023-08-31T06:27:57;14.24;85.11
40059;SHT31;25763;49.972;8.568;2023-08-31T06:30:23;14.35;84.62
40059;SHT31;25763;49.972;8.568;2023-08-31T06:32:49;14.40;84.17
40059;SHT31;25763;49.972;8.568;2023-08-31T06:35:15;14.18;84.11
40059;SHT31;25763;49.972;8.568;2023-08-31T06:37:41;14.31;84.12
40059;SHT31;25763;49.972;8.568;2023-08-31T06:40:08;14.30;83.98
40059;SHT31;25763;49.972;8.568;2023-08-31T06:42:37;14.45;83.87
40059;SHT31;25763;49.972;8.568;2023-08-31T06:45:06;14.67;83.69
40059;SHT31;25763;49.972;8.568;2023-08-31T06:47:32;14.80;83.25
40059;SHT31;25763;49.972;8.568;2023-08-31T06:49:58;14.68;82.22
40059;SHT31;25763;49.972;8.568;2023-08-31T06:52:27;14.62;81.96
40059;SHT31;25763;49.972;8.568;2023-08-31T06:54:53;14.72;82.14
40059;SHT31;25763;49.972;8.568;2023-08-31T06:57:21;14.79;82.13
40059;SHT31;25763;49.972;8.568;2023-08-31T06:59:47;14.76;81.94
40059;SHT31;25763;49.972;8.568;2023-08-31T07:02:12;14.73;81.64
40059;SHT31;25763;49.972;8.568;2023-08-31T07:04:38;14.90;81.63
40059;SHT31;25763;49.972;8.568;2023-08-31T07:07:03;14.97;81.75
40059;SHT31;25763;49.972;8.568;2023-08-31T07:09:30;14.93;81.53
40059;SHT31;25763;49.972;8.568;2023-08-31T07:11:55;15.07;81.45
40059;SHT31;25763;49.972;8.568;2023-08-31T07:14:21;15.20;81.02
40059;SHT31;25763;49.972;8.568;2023-08-31T07:16:46;15.35;80.94
40059;SHT31;25763;49.972;8.568;2023-08-31T07:19:12;15.46;80.95
40059;SHT31;25763;49.972;8.568;2023-08-31T07:21:38;15.58;80.83
40059;SHT31;25763;49.972;8.568;2023-08-31T07:24:03;15.65;80.25
40059;SHT31;25763;49.972;8.568;2023-08-31T07:26:29;15.46;79.57
40059;SHT31;25763;49.972;8.568;2023-08-31T07:28:55;15.24;79.87
40059;SHT31;25763;49.972;8.568;2023-08-31T07:31:20;15.24;80.45
40059;SHT31;25763;49.972;8.568;2023-08-31T07:33:46;15.12;80.06
40059;SHT31;25763;49.972;8.568;2023-08-31T07:36:11;15.12;80.56
40059;SHT31;25763;49.972;8.568;2023-08-31T07:38:36;15.21;80.55
40059;SHT31;25763;49.972;8.568;2023-08-31T07:41:02;15.22;80.83
40059;SHT31;25763;49.972;8.568;2023-08-31T07:43:27;15.37;80.10
40059;SHT31;25763;49.972;8.568;2023-08-31T07:45:53;15.49;79.70
40059;SHT31;25763;49.972;8.568;2023-08-31T07:48:19;15.58;79.70
40059;SHT31;25763;49.972;8.568;2023-08-31T07:50:45;15.74;79.66
40059;SHT31;25763;49.972;8.568;2023-08-31T07:53:11;15.71;78.99
40059;SHT31;25763;49.972;8.568;2023-08-31T07:55:36;15.79;79.30
40059;SHT31;25763;49.972;8.568;2023-08-31T07:58:02;15.69;79.50
40059;SHT31;25763;49.972;8.568;2023-08-31T08:00:27;15.61;78.84
40059;SHT31;25763;49.972;8.568;2023-08-31T08:02:53;15.66;79.67
40059;SHT31;25763;49.972;8.568;2023-08-31T08:05:18;15.59;79.73
40059;SHT31;25763;49.972;8.568;2023-08-31T08:07:44;15.59;79.43
40059;SHT31;25763;49.972;8.568;2023-08-31T08:10:11;15.52;78.81
40059;SHT31;25763;49.972;8.568;2023-08-31T08:12:38;15.73;78.32
40059;SHT31;25763;49.972;8.568;2023-08-31T08:15:05;15.84;78.09
40059;SHT31;25763;49.972;8.568;2023-08-31T08:17:30;15.84;77.82
40059;SHT31;25763;49.972;8.568;2023-08-31T08:19:56;15.74;78.47
40059;SHT31;25763;49.972;8.568;2023-08-31T08:22:21;16.14;78.68
40059;SHT31;25763;49.972;8.568;2023-08-31T08:24:46;16.55;78.19
40059;SHT31;25763;49.972;8.568;2023-08-31T08:27:12;16.57;76.28
40059;SHT31;25763;49.972;8.568;2023-08-31T08:29:37;16.42;76.71
40059;SHT31;25763;49.972;8.568;2023-08-31T08:32:03;16.53;76.39
40059;SHT31;25763;49.972;8.568;2023-08-31T08:34:28;16.75;76.19
40059;SHT31;25763;49.972;8.568;2023-08-31T08:36:54;17.02;75.57
40059;SHT31;25763;49.972;8.568;2023-08-31T08:39:19;16.95;74.29
40059;SHT31;25763;49.972;8.568;2023-08-31T08:41:45;16.77;74.35
40059;SHT31;25763;49.972;8.568;2023-08-31T08:44:12;16.98;74.56
40059;SHT31;25763;49.972;8.568;2023-08-31T08:46:40;16.91;73.56
40059;SHT31;25763;49.972;8.568;2023-08-31T08:49:06;16.99;72.76
40059;SHT31;25763;49.972;8.568;2023-08-31T08:51:32;17.09;73.43
40059;SHT31;25763;49.972;8.568;2023-08-31T08:53:59;17.19;73.62
40059;SHT31;25763;49.972;8.568;2023-08-31T08:56:24;17.54;72.23
40059;SHT31;25763;49.972;8.568;2023-08-31T08:58:50;17.93;72.06
40059;SHT31;25763;49.972;8.568;2023-08-31T09:01:15;17.85;70.91
40059;SHT31;25763;49.972;8.568;2023-08-31T09:03:43;17.88;70.82
40059;SHT31;25763;49.972;8.568;2023-08-31T09:06:08;17.67;70.82
40059;SHT31;25763;49.972;8.568;2023-08-31T09:08:35;17.58;71.46
40059;SHT31;25763;49.972;8.568;2023-08-31T09:11:02;17.32;71.00
40059;SHT31;25763;49.972;8.568;2023-08-31T09:13:28;17.57;70.98
40059;SHT31;25763;49.972;8.568;2023-08-31T09:15:54;17.65;70.56
40059;SHT31;25763;49.972;8.568;2023-08-31T09:18:30;17.75;70.53
40059;SHT31;25763;49.972;8.568;2023-08-31T09:20:59;17.58;71.08
40059;SHT31;25763;49.972;8.568;2023-08-31T09:23:28;17.43;70.45
40059;SHT31;25763;49.972;8.568;2023-08-31T09:25:55;17.53;70.79
40059;SHT31;25763;49.972;8.568;2023-08-31T09:28:25;17.33;69.93
40059;SHT31;25763;49.972;8.568;2023-08-31T09:30:52;17.16;69.22
40059;SHT31;25763;49.972;8.568;2023-08-31T09:33:19;17.29;71.02
40059;SHT31;25763;49.972;8.568;2023-08-31T09:35:59;17.75;68.40
40059;SHT31;25763;49.972;8.568;2023-08-31T09:38:26;18.17;69.48
40059;SHT31;25763;49.972;8.568;2023-08-31T09:40:52;18.30;69.12
40059;SHT31;25763;49.972;8.568;2023-08-31T09:43:29;18.40;66.98
40059;SHT31;25763;49.972;8.568;2023-08-31T09:45:54;18.48;66.91
40059;SHT31;25763;49.972;8.568;2023-08-31T09:48:20;18.52;65.89
40059;SHT31;25763;49.972;8.568;2023-08-31T09:50:48;18.90;66.48
40059;SHT31;25763;49.972;8.568;2023-08-31T09:53:16;18.90;65.31
40059;SHT31;25763;49.972;8.568;2023-08-31T09:55:43;18.67;65.60
40059;SHT31;25763;49.972;8.568;2023-08-31T09:58:08;18.41;66.40
40059;SHT31;25763;49.972;8.568;2023-08-31T10:00:36;18.57;67.33
40059;SHT31;25763;49.972;8.568;2023-08-31T10:03:04;18.38;66.67
40059;SHT31;25763;49.972;8.568;2023-08-31T10:05:30;18.26;65.05
40059;SHT31;25763;49.972;8.568;2023-08-31T10:07:57;18.68;65.75
40059;SHT31;25763;49.972;8.568;2023-08-31T10:10:22;19.38;65.02
40059;SHT31;25763;49.972;8.568;2023-08-31T10:12:49;19.53;63.54
40059;SHT31;25763;49.972;8.568;2023-08-31T10:15:18;19.86;63.51
40059;SHT31;25763;49.972;8.568;2023-08-31T10:17:44;20.12;60.59
40059;SHT31;25763;49.972;8.568;2023-08-31T10:20:11;20.20;62.06
40059;SHT31;25763;49.972;8.568;2023-08-31T10:22:37;20.40;61.40
40059;SHT31;25763;49.972;8.568;2023-08-31T10:25:05;20.14;60.35
40059;SHT31;25763;49.972;8.568;2023-08-31T10:27:42;20.40;59.76
40059;SHT31;25763;49.972;8.568;2023-08-31T10:35:55;20.39;59.11
40059;SHT31;25763;49.972;8.568;2023-08-31T10:38:31;20.20;60.42
40059;SHT31;25763;49.972;8.568;2023-08-31T10:41:23;20.04;59.15
40059;SHT31;25763;49.972;8.568;2023-08-31T10:43:50;20.20;58.46
40059;SHT31;25763;49.972;8.568;2023-08-31T10:46:24;20.14;58.19
40059;SHT31;25763;49.972;8.568;2023-08-31T10:48:57;20.33;59.72
40059;SHT31;25763;49.972;8.568;2023-08-31T10:51:24;20.73;59.95
40059;SHT31;25763;49.972;8.568;2023-08-31T10:53:49;21.20;58.45
40059;SHT31;25763;49.972;8.568;2023-08-31T10:56:16;21.47;58.96
40059;SHT31;25763;49.972;8.568;2023-08-31T10:58:42;20.87;57.96
40059;SHT31;25763;49.972;8.568;2023-08-31T11:01:09;20.67;60.07
40059;SHT31;25763;49.972;8.568;2023-08-31T11:03:57;20.70;59.79
40059;SHT31;25763;49.972;8.568;2023-08-31T11:06:23;20.67;60.77
40059;SHT31;25763;49.972;8.568;2023-08-31T11:08:53;20.53;60.76
40059;SHT31;25763;49.972;8.568;2023-08-31T11:11:19;20.77;59.95
40059;SHT31;25763;49.972;8.568;2023-08-31T11:13:45;21.05;60.25
40059;SHT31;25763;49.972;8.568;2023-08-31T11:16:10;21.33;58.56
40059;SHT31;25763;49.972;8.568;2023-08-31T11:18:36;21.67;57.73
40059;SHT31;25763;49.972;8.568;2023-08-31T11:21:02;21.56;57.34
40059;SHT31;25763;49.972;8.568;2023-08-31T11:23:31;21.57;57.97
40059;SHT31;25763;49.972;8.568;2023-08-31T11:25:56;21.30;57.92
40059;SHT31;25763;49.972;8.568;2023-08-31T11:28:21;20.74;56.98
40059;SHT31;25763;49.972;8.568;2023-08-31T11:30:48;20.77;59.07
40059;SHT31;25763;49.972;8.568;2023-08-31T11:33:13;21.12;58.06
40059;SHT31;25763;49.972;8.568;2023-08-31T11:35:42;21.42;58.58
40059;SHT31;25763;49.972;8.568;2023-08-31T11:38:09;21.77;56.62
40059;SHT31;25763;49.972;8.568;2023-08-31T11:40:35;22.05;55.96
40059;SHT31;25763;49.972;8.568;2023-08-31T11:43:02;22.43;55.71
40059;SHT31;25763;49.972;8.568;2023-08-31T11:45:29;22.83;55.41
40059;SHT31;25763;49.972;8.568;2023-08-31T11:47:55;22.69;51.71
40059;SHT31;25763;49.972;8.568;2023-08-31T11:50:22;22.50;53.46
40059;SHT31;25763;49.972;8.568;2023-08-31T11:52:48;22.43;53.85
40059;SHT31;25763;49.972;8.568;2023-08-31T11:55:15;22.43;51.59
40059;SHT31;25763;49.972;8.568;2023-08-31T11:57:52;22.88;53.81
40059;SHT31;25763;49.972;8.568;2023-08-31T12:00:20;23.12;52.22
40059;SHT31;25763;49.972;8.568;2023-08-31T12:02:53;23.34;52.02
40059;SHT31;25763;49.972;8.568;2023-08-31T12:05:19;23.33;48.06
40059;SHT31;25763;49.972;8.568;2023-08-31T12:07:44;23.10;46.47
40059;SHT31;25763;49.972;8.568;2023-08-31T12:10:10;22.91;46.12
40059;SHT31;25763;49.972;8.568;2023-08-31T12:12:35;23.13;45.52
40059;SHT31;25763;49.972;8.568;2023-08-31T12:15:02;23.10;47.14
40059;SHT31;25763;49.972;8.568;2023-08-31T12:17:30;23.17;45.76
40059;SHT31;25763;49.972;8.568;2023-08-31T12:20:03;22.95;44.73
40059;SHT31;25763;49.972;8.568;2023-08-31T12:22:32;23.12;45.30
40059;SHT31;25763;49.972;8.568;2023-08-31T12:24:58;23.16;45.77
40059;SHT31;25763;49.972;8.568;2023-08-31T12:27:23;23.07;45.82
40059;SHT31;25763;49.972;8.568;2023-08-31T12:29:48;23.03;45.27
40059;SHT31;25763;49.972;8.568;2023-08-31T12:32:15;22.95;44.33
40059;SHT31;25763;49.972;8.568;2023-08-31T12:34:42;22.64;44.84
40059;SHT31;25763;49.972;8.568;2023-08-31T12:37:07;22.60;45.83
40059;SHT31;25763;49.972;8.568;2023-08-31T12:39:33;22.89;44.73
40059;SHT31;25763;49.972;8.568;2023-08-31T12:41:58;22.30;45.70
40059;SHT31;25763;49.972;8.568;2023-08-31T12:44:24;21.92;46.90
40059;SHT31;25763;49.972;8.568;2023-08-31T12:46:51;21.82;47.12
40059;SHT31;25763;49.972;8.568;2023-08-31T12:49:16;21.61;48.56
40059;SHT31;25763;49.972;8.568;2023-08-31T12:51:41;21.67;48.98
40059;SHT31;25763;49.972;8.568;2023-08-31T12:54:07;21.43;49.56
40059;SHT31;25763;49.972;8.568;2023-08-31T12:56:33;21.05;49.59
40059;SHT31;25763;49.972;8.568;2023-08-31T12:58:58;20.98;49.80
40059;SHT31;25763;49.972;8.568;2023-08-31T13:01:24;20.88;49.76
40059;SHT31;25763;49.972;8.568;2023-08-31T13:03:50;20.71;49.22
40059;SHT31;25763;49.972;8.568;2023-08-31T13:06:17;20.80;51.38
40059;SHT31;25763;49.972;8.568;2023-08-31T13:08:43;21.01;50.25
40059;SHT31;25763;49.972;8.568;2023-08-31T13:11:10;21.35;50.07
40059;SHT31;25763;49.972;8.568;2023-08-31T13:13:35;21.46;48.67
40059;SHT31;25763;49.972;8.568;2023-08-31T13:16:01;21.57;47.27
40059;SHT31;25763;49.972;8.568;2023-08-31T13:18:27;21.92;49.01
40059;SHT31;25763;49.972;8.568;2023-08-31T13:20:54;21.68;49.55
40059;SHT31;25763;49.972;8.568;2023-08-31T13:23:20;21.47;46.55
40059;SHT31;25763;49.972;8.568;2023-08-31T13:25:46;21.54;49.06
40059;SHT31;25763;49.972;8.568;2023-08-31T13:28:11;21.67;47.09
40059;SHT31;25763;49.972;8.568;2023-08-31T13:30:37;21.84;47.07
40059;SHT31;25763;49.972;8.568;2023-08-31T13:33:02;21.87;46.92
40059;SHT31;25763;49.972;8.568;2023-08-31T13:35:29;21.87;47.39
40059;SHT31;25763;49.972;8.568;2023-08-31T13:37:55;22.12;47.80
40059;SHT31;25763;49.972;8.568;2023-08-31T13:40:20;22.15;47.12
40059;SHT31;25763;49.972;8.568;2023-08-31T13:42:59;22.05;48.12
40059;SHT31;25763;49.972;8.568;2023-08-31T13:45:31;21.77;48.73
40059;SHT31;25763;49.972;8.568;2023-08-31T13:47:59;21.74;47.18
40059;SHT31;25763;49.972;8.568;2023-08-31T13:50:26;21.57;47.27
40059;SHT31;25763;49.972;8.568;2023-08-31T13:52:52;21.91;46.99
40059;SHT31;25763;49.972;8.568;2023-08-31T13:55:17;21.81;46.78
40059;SHT31;25763;49.972;8.568;2023-08-31T13:57:43;21.57;46.76
40059;SHT31;25763;49.972;8.568;2023-08-31T14:00:09;21.78;48.03
40059;SHT31;25763;49.972;8.568;2023-08-31T14:02:37;22.06;48.60
40059;SHT31;25763;49.972;8.568;2023-08-31T14:05:03;22.13;49.05
40059;SHT31;25763;49.972;8.568;2023-08-31T14:07:29;22.20;47.24
40059;SHT31;25763;49.972;8.568;2023-08-31T14:09:54;22.36;47.50
40059;SHT31;25763;49.972;8.568;2023-08-31T14:12:19;22.51;46.42
40059;SHT31;25763;49.972;8.568;2023-08-31T14:14:46;22.50;47.12
40059;SHT31;25763;49.972;8.568;2023-08-31T14:17:12;22.24;47.88
40059;SHT31;25763;49.972;8.568;2023-08-31T14:19:37;22.41;48.06
40059;SHT31;25763;49.972;8.568;2023-08-31T14:22:04;22.22;48.35
40059;SHT31;25763;49.972;8.568;2023-08-31T14:24:29;22.40;47.60
40059;SHT31;25763;49.972;8.568;2023-08-31T14:26:55;22.43;47.65
40059;SHT31;25763;49.972;8.568;2023-08-31T14:29:20;22.10;48.12
40059;SHT31;25763;49.972;8.568;2023-08-31T14:31:46;21.84;48.64
40059;SHT31;25763;49.972;8.568;2023-08-31T14:34:11;21.58;48.34
40059;SHT31;25763;49.972;8.568;2023-08-31T14:36:36;21.26;48.44
40059;SHT31;25763;49.972;8.568;2023-08-31T14:39:02;21.19;50.59
40059;SHT31;25763;49.972;8.568;2023-08-31T14:41:30;21.36;49.30
40059;SHT31;25763;49.972;8.568;2023-08-31T14:43:55;21.50;48.13
40059;SHT31;25763;49.972;8.568;2023-08-31T14:46:20;21.85;49.09
40059;SHT31;25763;49.972;8.568;2023-08-31T14:48:47;22.23;49.53
40059;SHT31;25763;49.972;8.568;2023-08-31T14:51:12;22.20;48.20
40059;SHT31;25763;49.972;8.568;2023-08-31T14:53:38;21.88;49.23
40059;SHT31;25763;49.972;8.568;2023-08-31T14:56:05;21.49;50.04
40059;SHT31;25763;49.972;8.568;2023-08-31T14:58:30;21.43;50.86
40059;SHT31;25763;49.972;8.568;2023-08-31T15:00:56;21.26;52.11
40059;SHT31;25763;49.972;8.568;2023-08-31T15:03:21;21.14;51.55
40059;SHT31;25763;49.972;8.568;2023-08-31T15:05:49;21.16;53.09
40059;SHT31;25763;49.972;8.568;2023-08-31T15:08:14;21.12;51.28
40059;SHT31;25763;49.972;8.568;2023-08-31T15:10:40;21.18;52.16
40059;SHT31;25763;49.972;8.568;2023-08-31T15:13:06;21.28;53.24
40059;SHT31;25763;49.972;8.568;2023-08-31T15:15:31;21.35;51.28
40059;SHT31;25763;49.972;8.568;2023-08-31T15:17:56;21.56;51.91
40059;SHT31;25763;49.972;8.568;2023-08-31T15:20:23;21.61;51.17
40059;SHT31;25763;49.972;8.568;2023-08-31T15:22:49;21.58;50.76
40059;SHT31;25763;49.972;8.568;2023-08-31T15:25:15;21.63;50.98
40059;SHT31;25763;49.972;8.568;2023-08-31T15:27:43;21.60;50.52
40059;SHT31;25763;49.972;8.568;2023-08-31T15:30:09;21.32;51.39
40059;SHT31;25763;49.972;8.568;2023-08-31T15:32:38;21.09;51.74
40059;SHT31;25763;49.972;8.568;2023-08-31T15:35:04;20.90;53.01
40059;SHT31;25763;49.972;8.568;2023-08-31T15:37:30;20.71;53.52